sensor_id;sensor_type;location;lat;lon;timestamp;P1;durP1;ratioP1;P2;durP2;ratioP2
36351;SDS011;22382;44.768;17.206;2022-10-04T00:01:48;6.60;;;2.55;;
36351;SDS011;22382;44.768;17.206;2022-10-04T00:04:52;4.05;;;2.70;;
36351;SDS011;22382;44.768;17.206;2022-10-04T00:07:19;6.05;;;2.40;;
36351;SDS011;22382;44.768;17.206;2022-10-04T00:09:57;6.68;;;2.40;;
36351;SDS011;22382;44.768;17.206;2022-10-04T00:12:34;5.47;;;2.13;;
36351;SDS011;22382;44.768;17.206;2022-10-04T00:15:19;6.65;;;2.33;;
36351;SDS011;22382;44.768;17.206;2022-10-04T00:21:03;3.90;;;2.03;;
36351;SDS011;22382;44.768;17.206;2022-10-04T00:37:12;3.20;;;2.05;;
36351;SDS011;22382;44.768;17.206;2022-10-04T00:39:13;3.83;;;1.92;;
36351;SDS011;22382;44.768;17.206;2022-10-04T00:44:20;3.55;;;2.00;;
36351;SDS011;22382;44.768;17.206;2022-10-04T00:46:55;5.32;;;2.25;;
36351;SDS011;22382;44.768;17.206;2022-10-04T00:49:25;4.85;;;2.10;;
36351;SDS011;22382;44.768;17.206;2022-10-04T00:52:05;6.68;;;2.33;;
36351;SDS011;22382;44.768;17.206;2022-10-04T00:54:43;4.10;;;1.95;;
36351;SDS011;22382;44.768;17.206;2022-10-04T00:57:36;3.40;;;1.92;;
36351;SDS011;22382;44.768;17.206;2022-10-04T01:00:11;5.57;;;2.78;;
36351;SDS011;22382;44.768;17.206;2022-10-04T01:05:21;3.25;;;2.00;;
36351;SDS011;22382;44.768;17.206;2022-10-04T01:10:27;4.28;;;1.83;;
36351;SDS011;22382;44.768;17.206;2022-10-04T01:13:18;3.03;;;2.20;;
36351;SDS011;22382;44.768;17.206;2022-10-04T01:18:45;3.15;;;1.90;;
36351;SDS011;22382;44.768;17.206;2022-10-04T01:23:49;5.78;;;2.00;;
36351;SDS011;22382;44.768;17.206;2022-10-04T01:28:56;3.45;;;1.90;;
36351;SDS011;22382;44.768;17.206;2022-10-04T01:31:31;2.28;;;1.60;;
36351;SDS011;22382;44.768;17.206;2022-10-04T01:34:00;6.72;;;2.00;;
36351;SDS011;22382;44.768;17.206;2022-10-04T01:36:27;7.85;;;2.00;;
36351;SDS011;22382;44.768;17.206;2022-10-04T01:38:54;2.63;;;1.60;;
36351;SDS011;22382;44.768;17.206;2022-10-04T01:41:46;7.15;;;1.92;;
36351;SDS011;22382;44.768;17.206;2022-10-04T01:47:11;3.45;;;1.63;;
36351;SDS011;22382;44.768;17.206;2022-10-04T01:49:43;4.35;;;1.98;;
36351;SDS011;22382;44.768;17.206;2022-10-04T01:52:22;3.53;;;1.67;;
36351;SDS011;22382;44.768;17.206;2022-10-04T01:55:01;4.38;;;2.28;;
36351;SDS011;22382;44.768;17.206;2022-10-04T01:57:55;5.60;;;1.92;;
36351;SDS011;22382;44.768;17.206;2022-10-04T02:00:47;4.80;;;1.75;;
36351;SDS011;22382;44.768;17.206;2022-10-04T02:04:04;3.90;;;1.63;;
36351;SDS011;22382;44.768;17.206;2022-10-04T02:06:14;3.25;;;1.70;;
36351;SDS011;22382;44.768;17.206;2022-10-04T02:08:45;2.85;;;1.90;;
36351;SDS011;22382;44.768;17.206;2022-10-04T02:11:19;4.28;;;1.90;;
36351;SDS011;22382;44.768;17.206;2022-10-04T02:13:47;6.10;;;2.38;;
36351;SDS011;22382;44.768;17.206;2022-10-04T02:16:16;3.03;;;1.95;;
36351;SDS011;22382;44.768;17.206;2022-10-04T02:18:45;4.18;;;1.80;;
36351;SDS011;22382;44.768;17.206;2022-10-04T02:21:12;4.97;;;2.00;;
36351;SDS011;22382;44.768;17.206;2022-10-04T02:23:41;3.30;;;2.03;;
36351;SDS011;22382;44.768;17.206;2022-10-04T02:26:10;7.05;;;2.10;;
36351;SDS011;22382;44.768;17.206;2022-10-04T02:28:37;3.90;;;2.25;;
36351;SDS011;22382;44.768;17.206;2022-10-04T02:31:05;3.70;;;1.98;;
36351;SDS011;22382;44.768;17.206;2022-10-04T02:33:55;4.88;;;2.03;;
36351;SDS011;22382;44.768;17.206;2022-10-04T02:36:25;4.57;;;2.10;;
36351;SDS011;22382;44.768;17.206;2022-10-04T02:38:57;4.00;;;1.80;;
36351;SDS011;22382;44.768;17.206;2022-10-04T02:44:12;4.68;;;1.90;;
36351;SDS011;22382;44.768;17.206;2022-10-04T02:47:26;3.28;;;1.95;;
36351;SDS011;22382;44.768;17.206;2022-10-04T02:49:45;4.30;;;2.05;;
36351;SDS011;22382;44.768;17.206;2022-10-04T02:52:28;3.65;;;2.20;;
36351;SDS011;22382;44.768;17.206;2022-10-04T02:57:32;4.90;;;2.15;;
36351;SDS011;22382;44.768;17.206;2022-10-04T03:00:09;7.30;;;2.05;;
36351;SDS011;22382;44.768;17.206;2022-10-04T03:05:36;3.13;;;1.92;;
36351;SDS011;22382;44.768;17.206;2022-10-04T03:08:05;4.07;;;2.10;;
36351;SDS011;22382;44.768;17.206;2022-10-04T03:10:32;3.42;;;1.70;;
36351;SDS011;22382;44.768;17.206;2022-10-04T03:13:01;3.30;;;1.70;;
36351;SDS011;22382;44.768;17.206;2022-10-04T03:15:29;7.03;;;2.30;;
36351;SDS011;22382;44.768;17.206;2022-10-04T03:17:56;4.35;;;1.90;;
36351;SDS011;22382;44.768;17.206;2022-10-04T03:20:24;6.90;;;1.90;;
36351;SDS011;22382;44.768;17.206;2022-10-04T03:22:52;2.83;;;1.70;;
36351;SDS011;22382;44.768;17.206;2022-10-04T03:25:21;6.65;;;1.80;;
36351;SDS011;22382;44.768;17.206;2022-10-04T03:27:54;2.95;;;1.80;;
36351;SDS011;22382;44.768;17.206;2022-10-04T03:30:25;3.33;;;1.98;;
36351;SDS011;22382;44.768;17.206;2022-10-04T03:32:52;5.28;;;2.10;;
36351;SDS011;22382;44.768;17.206;2022-10-04T03:35:32;5.50;;;2.10;;
36351;SDS011;22382;44.768;17.206;2022-10-04T03:38:04;5.25;;;2.30;;
36351;SDS011;22382;44.768;17.206;2022-10-04T03:40:33;5.55;;;2.38;;
36351;SDS011;22382;44.768;17.206;2022-10-04T03:43:03;3.53;;;1.77;;
36351;SDS011;22382;44.768;17.206;2022-10-04T03:45:32;2.95;;;2.10;;
36351;SDS011;22382;44.768;17.206;2022-10-04T03:48:02;3.75;;;1.60;;
36351;SDS011;22382;44.768;17.206;2022-10-04T03:50:33;3.50;;;1.90;;
36351;SDS011;22382;44.768;17.206;2022-10-04T03:53:10;4.60;;;1.80;;
36351;SDS011;22382;44.768;17.206;2022-10-04T03:55:47;3.63;;;2.00;;
36351;SDS011;22382;44.768;17.206;2022-10-04T03:58:15;9.07;;;2.10;;
36351;SDS011;22382;44.768;17.206;2022-10-04T04:01:08;5.85;;;2.33;;
36351;SDS011;22382;44.768;17.206;2022-10-04T04:03:41;6.47;;;2.30;;
36351;SDS011;22382;44.768;17.206;2022-10-04T04:12:14;2.88;;;1.60;;
36351;SDS011;22382;44.768;17.206;2022-10-04T04:14:46;4.03;;;1.80;;
36351;SDS011;22382;44.768;17.206;2022-10-04T04:19:53;4.85;;;2.35;;
36351;SDS011;22382;44.768;17.206;2022-10-04T04:22:26;5.20;;;2.28;;
36351;SDS011;22382;44.768;17.206;2022-10-04T04:24:59;8.20;;;2.63;;
36351;SDS011;22382;44.768;17.206;2022-10-04T04:27:31;7.72;;;3.10;;
36351;SDS011;22382;44.768;17.206;2022-10-04T04:30:02;7.00;;;2.92;;
36351;SDS011;22382;44.768;17.206;2022-10-04T04:32:32;8.27;;;3.45;;
36351;SDS011;22382;44.768;17.206;2022-10-04T04:35:06;9.38;;;3.40;;
36351;SDS011;22382;44.768;17.206;2022-10-04T04:38:00;5.32;;;2.50;;
36351;SDS011;22382;44.768;17.206;2022-10-04T04:40:42;7.68;;;2.75;;
36351;SDS011;22382;44.768;17.206;2022-10-04T04:43:12;6.43;;;3.15;;
36351;SDS011;22382;44.768;17.206;2022-10-04T04:45:47;6.82;;;3.10;;
36351;SDS011;22382;44.768;17.206;2022-10-04T04:48:35;10.68;;;3.15;;
36351;SDS011;22382;44.768;17.206;2022-10-04T04:51:03;7.50;;;2.70;;
36351;SDS011;22382;44.768;17.206;2022-10-04T04:53:30;4.90;;;2.90;;
36351;SDS011;22382;44.768;17.206;2022-10-04T04:55:58;5.30;;;3.03;;
36351;SDS011;22382;44.768;17.206;2022-10-04T04:58:34;7.57;;;3.00;;
36351;SDS011;22382;44.768;17.206;2022-10-04T05:03:30;5.45;;;3.42;;
36351;SDS011;22382;44.768;17.206;2022-10-04T05:05:59;6.03;;;2.88;;
36351;SDS011;22382;44.768;17.206;2022-10-04T05:08:31;5.65;;;3.03;;
36351;SDS011;22382;44.768;17.206;2022-10-04T05:16:13;10.18;;;5.55;;
36351;SDS011;22382;44.768;17.206;2022-10-04T05:18:55;8.02;;;4.65;;
36351;SDS011;22382;44.768;17.206;2022-10-04T05:21:31;10.52;;;4.97;;
36351;SDS011;22382;44.768;17.206;2022-10-04T05:26:58;7.88;;;4.03;;
36351;SDS011;22382;44.768;17.206;2022-10-04T05:29:33;7.20;;;4.25;;
36351;SDS011;22382;44.768;17.206;2022-10-04T05:34:55;7.20;;;4.50;;
36351;SDS011;22382;44.768;17.206;2022-10-04T05:42:46;10.40;;;5.18;;
36351;SDS011;22382;44.768;17.206;2022-10-04T05:47:44;7.38;;;4.78;;
36351;SDS011;22382;44.768;17.206;2022-10-04T06:01:26;10.38;;;5.65;;
36351;SDS011;22382;44.768;17.206;2022-10-04T06:18:23;12.63;;;7.43;;
36351;SDS011;22382;44.768;17.206;2022-10-04T06:23:25;10.20;;;4.70;;
36351;SDS011;22382;44.768;17.206;2022-10-04T06:25:58;7.63;;;4.82;;
36351;SDS011;22382;44.768;17.206;2022-10-04T06:28:33;9.13;;;5.10;;
36351;SDS011;22382;44.768;17.206;2022-10-04T06:39:06;7.88;;;4.53;;
36351;SDS011;22382;44.768;17.206;2022-10-04T06:42:05;6.30;;;3.20;;
36351;SDS011;22382;44.768;17.206;2022-10-04T07:00:56;8.32;;;3.28;;
36351;SDS011;22382;44.768;17.206;2022-10-04T07:03:26;8.60;;;3.40;;
36351;SDS011;22382;44.768;17.206;2022-10-04T07:06:20;7.18;;;3.10;;
36351;SDS011;22382;44.768;17.206;2022-10-04T07:08:53;5.25;;;3.53;;
36351;SDS011;22382;44.768;17.206;2022-10-04T07:11:29;5.20;;;3.30;;
36351;SDS011;22382;44.768;17.206;2022-10-04T07:17:02;4.78;;;2.80;;
36351;SDS011;22382;44.768;17.206;2022-10-04T07:19:37;6.28;;;3.33;;
36351;SDS011;22382;44.768;17.206;2022-10-04T07:22:56;7.13;;;3.35;;
36351;SDS011;22382;44.768;17.206;2022-10-04T07:25:12;11.65;;;4.53;;
36351;SDS011;22382;44.768;17.206;2022-10-04T07:27:54;6.85;;;3.97;;
36351;SDS011;22382;44.768;17.206;2022-10-04T07:30:58;7.97;;;3.97;;
36351;SDS011;22382;44.768;17.206;2022-10-04T07:33:35;9.70;;;3.85;;
36351;SDS011;22382;44.768;17.206;2022-10-04T07:36:24;4.72;;;3.40;;
36351;SDS011;22382;44.768;17.206;2022-10-04T07:38:57;12.18;;;4.28;;
36351;SDS011;22382;44.768;17.206;2022-10-04T07:41:42;6.55;;;3.78;;
36351;SDS011;22382;44.768;17.206;2022-10-04T07:44:34;11.48;;;4.40;;
36351;SDS011;22382;44.768;17.206;2022-10-04T07:47:05;8.82;;;4.40;;
36351;SDS011;22382;44.768;17.206;2022-10-04T07:49:39;9.75;;;4.57;;
36351;SDS011;22382;44.768;17.206;2022-10-04T07:57:35;10.35;;;4.18;;
36351;SDS011;22382;44.768;17.206;2022-10-04T08:05:57;5.55;;;2.90;;
36351;SDS011;22382;44.768;17.206;2022-10-04T08:08:49;5.15;;;2.78;;
36351;SDS011;22382;44.768;17.206;2022-10-04T08:14:26;11.13;;;5.45;;
36351;SDS011;22382;44.768;17.206;2022-10-04T09:08:21;10.20;;;3.30;;
36351;SDS011;22382;44.768;17.206;2022-10-04T09:13:39;10.52;;;5.68;;
36351;SDS011;22382;44.768;17.206;2022-10-04T09:16:44;5.60;;;2.95;;
36351;SDS011;22382;44.768;17.206;2022-10-04T09:22:16;4.53;;;2.50;;
36351;SDS011;22382;44.768;17.206;2022-10-04T09:25:22;7.35;;;4.03;;
36351;SDS011;22382;44.768;17.206;2022-10-04T09:28:11;5.88;;;2.95;;
36351;SDS011;22382;44.768;17.206;2022-10-04T09:50:43;1.98;;;1.27;;
36351;SDS011;22382;44.768;17.206;2022-10-04T09:59:01;2.65;;;1.80;;
36351;SDS011;22382;44.768;17.206;2022-10-04T10:07:08;4.35;;;2.35;;
36351;SDS011;22382;44.768;17.206;2022-10-04T10:13:12;3.72;;;1.67;;
36351;SDS011;22382;44.768;17.206;2022-10-04T10:21:52;3.35;;;1.58;;
36351;SDS011;22382;44.768;17.206;2022-10-04T10:41:54;2.65;;;0.90;;
36351;SDS011;22382;44.768;17.206;2022-10-04T10:45:08;5.13;;;1.40;;
36351;SDS011;22382;44.768;17.206;2022-10-04T11:36:26;2.20;;;1.00;;
36351;SDS011;22382;44.768;17.206;2022-10-04T11:50:05;3.17;;;1.10;;
36351;SDS011;22382;44.768;17.206;2022-10-04T12:11:58;2.15;;;0.98;;
36351;SDS011;22382;44.768;17.206;2022-10-04T12:15:36;2.85;;;1.25;;
36351;SDS011;22382;44.768;17.206;2022-10-04T12:26:36;4.65;;;0.80;;
36351;SDS011;22382;44.768;17.206;2022-10-04T12:31:40;4.40;;;1.13;;
36351;SDS011;22382;44.768;17.206;2022-10-04T12:39:51;4.53;;;2.00;;
36351;SDS011;22382;44.768;17.206;2022-10-04T13:05:15;4.70;;;1.17;;
36351;SDS011;22382;44.768;17.206;2022-10-04T13:07:48;3.28;;;1.10;;
36351;SDS011;22382;44.768;17.206;2022-10-04T13:16:00;3.55;;;1.10;;
36351;SDS011;22382;44.768;17.206;2022-10-04T13:18:56;3.90;;;0.93;;
36351;SDS011;22382;44.768;17.206;2022-10-04T13:26:45;4.93;;;2.20;;
36351;SDS011;22382;44.768;17.206;2022-10-04T13:32:25;2.47;;;1.00;;
36351;SDS011;22382;44.768;17.206;2022-10-04T13:35:30;1.52;;;0.80;;
36351;SDS011;22382;44.768;17.206;2022-10-04T14:00:51;5.18;;;1.10;;
36351;SDS011;22382;44.768;17.206;2022-10-04T14:06:52;2.13;;;0.68;;
36351;SDS011;22382;44.768;17.206;2022-10-04T14:12:13;2.13;;;1.08;;
36351;SDS011;22382;44.768;17.206;2022-10-04T14:34:49;7.10;;;2.60;;
36351;SDS011;22382;44.768;17.206;2022-10-04T14:54:52;1.50;;;0.65;;
36351;SDS011;22382;44.768;17.206;2022-10-04T14:57:40;2.85;;;0.85;;
36351;SDS011;22382;44.768;17.206;2022-10-04T15:00:16;2.42;;;1.13;;
36351;SDS011;22382;44.768;17.206;2022-10-04T15:11:03;2.65;;;1.10;;
36351;SDS011;22382;44.768;17.206;2022-10-04T15:13:38;1.48;;;1.02;;
36351;SDS011;22382;44.768;17.206;2022-10-04T15:24:22;2.88;;;1.25;;
36351;SDS011;22382;44.768;17.206;2022-10-04T15:27:00;2.88;;;1.10;;
36351;SDS011;22382;44.768;17.206;2022-10-04T15:46:39;13.32;;;5.93;;
36351;SDS011;22382;44.768;17.206;2022-10-04T15:57:51;6.32;;;3.38;;
36351;SDS011;22382;44.768;17.206;2022-10-04T16:00:19;7.78;;;4.10;;
36351;SDS011;22382;44.768;17.206;2022-10-04T16:17:28;14.82;;;9.10;;
36351;SDS011;22382;44.768;17.206;2022-10-04T16:26:04;17.00;;;10.30;;
36351;SDS011;22382;44.768;17.206;2022-10-04T16:45:43;17.92;;;9.45;;
36351;SDS011;22382;44.768;17.206;2022-10-04T16:53:52;13.90;;;6.85;;
36351;SDS011;22382;44.768;17.206;2022-10-04T16:56:30;14.43;;;8.00;;
36351;SDS011;22382;44.768;17.206;2022-10-04T16:59:41;11.90;;;7.70;;
36351;SDS011;22382;44.768;17.206;2022-10-04T17:07:31;25.10;;;6.80;;
36351;SDS011;22382;44.768;17.206;2022-10-04T17:10:26;9.35;;;6.40;;
36351;SDS011;22382;44.768;17.206;2022-10-04T17:20:59;13.50;;;6.63;;
36351;SDS011;22382;44.768;17.206;2022-10-04T17:26:40;13.77;;;6.63;;
36351;SDS011;22382;44.768;17.206;2022-10-04T17:32:13;10.90;;;6.22;;
36351;SDS011;22382;44.768;17.206;2022-10-04T17:43:20;15.02;;;8.10;;
36351;SDS011;22382;44.768;17.206;2022-10-04T17:46:04;13.52;;;8.18;;
36351;SDS011;22382;44.768;17.206;2022-10-04T17:48:40;10.88;;;7.70;;
36351;SDS011;22382;44.768;17.206;2022-10-04T17:51:40;13.15;;;7.43;;
36351;SDS011;22382;44.768;17.206;2022-10-04T17:57:24;15.23;;;7.93;;
36351;SDS011;22382;44.768;17.206;2022-10-04T18:00:08;13.13;;;7.53;;
36351;SDS011;22382;44.768;17.206;2022-10-04T18:05:25;20.83;;;8.00;;
36351;SDS011;22382;44.768;17.206;2022-10-04T18:10:55;17.20;;;8.05;;
36351;SDS011;22382;44.768;17.206;2022-10-04T18:16:21;10.65;;;7.38;;
36351;SDS011;22382;44.768;17.206;2022-10-04T18:19:28;12.23;;;7.63;;
36351;SDS011;22382;44.768;17.206;2022-10-04T18:22:15;14.45;;;8.30;;
36351;SDS011;22382;44.768;17.206;2022-10-04T18:24:42;15.40;;;7.90;;
36351;SDS011;22382;44.768;17.206;2022-10-04T18:27:21;14.82;;;8.80;;
36351;SDS011;22382;44.768;17.206;2022-10-04T18:34:53;13.32;;;8.30;;
36351;SDS011;22382;44.768;17.206;2022-10-04T18:37:41;15.40;;;9.23;;
36351;SDS011;22382;44.768;17.206;2022-10-04T18:40:19;17.95;;;9.18;;
36351;SDS011;22382;44.768;17.206;2022-10-04T18:42:58;18.35;;;9.88;;
36351;SDS011;22382;44.768;17.206;2022-10-04T18:45:28;16.55;;;8.95;;
36351;SDS011;22382;44.768;17.206;2022-10-04T18:48:00;17.98;;;9.07;;
36351;SDS011;22382;44.768;17.206;2022-10-04T18:50:39;14.75;;;7.95;;
36351;SDS011;22382;44.768;17.206;2022-10-04T18:55:56;12.75;;;8.05;;
36351;SDS011;22382;44.768;17.206;2022-10-04T19:10:35;13.98;;;8.95;;
36351;SDS011;22382;44.768;17.206;2022-10-04T19:24:21;19.23;;;11.30;;
36351;SDS011;22382;44.768;17.206;2022-10-04T19:38:42;13.80;;;7.53;;
36351;SDS011;22382;44.768;17.206;2022-10-04T19:43:58;16.23;;;9.48;;
36351;SDS011;22382;44.768;17.206;2022-10-04T19:46:47;12.48;;;7.60;;
36351;SDS011;22382;44.768;17.206;2022-10-04T19:49:40;12.57;;;7.80;;
36351;SDS011;22382;44.768;17.206;2022-10-04T19:54:56;12.40;;;7.95;;
36351;SDS011;22382;44.768;17.206;2022-10-04T19:57:37;12.20;;;7.50;;
36351;SDS011;22382;44.768;17.206;2022-10-04T20:00:08;15.55;;;9.32;;
36351;SDS011;22382;44.768;17.206;2022-10-04T20:05:13;15.40;;;8.05;;
36351;SDS011;22382;44.768;17.206;2022-10-04T20:07:49;13.63;;;8.68;;
36351;SDS011;22382;44.768;17.206;2022-10-04T20:10:29;15.30;;;8.82;;
36351;SDS011;22382;44.768;17.206;2022-10-04T20:13:07;14.52;;;7.60;;
36351;SDS011;22382;44.768;17.206;2022-10-04T20:15:43;11.68;;;7.72;;
36351;SDS011;22382;44.768;17.206;2022-10-04T20:32:03;11.63;;;7.25;;
36351;SDS011;22382;44.768;17.206;2022-10-04T20:34:32;15.95;;;8.85;;
36351;SDS011;22382;44.768;17.206;2022-10-04T20:37:08;20.08;;;10.20;;
36351;SDS011;22382;44.768;17.206;2022-10-04T20:42:09;13.30;;;8.27;;
36351;SDS011;22382;44.768;17.206;2022-10-04T20:44:51;12.90;;;7.43;;
36351;SDS011;22382;44.768;17.206;2022-10-04T20:50:12;12.75;;;7.43;;
36351;SDS011;22382;44.768;17.206;2022-10-04T20:53:02;10.88;;;6.85;;
36351;SDS011;22382;44.768;17.206;2022-10-04T20:55:35;12.20;;;7.85;;
36351;SDS011;22382;44.768;17.206;2022-10-04T21:03:22;11.05;;;6.55;;
36351;SDS011;22382;44.768;17.206;2022-10-04T21:06:03;11.98;;;6.82;;
36351;SDS011;22382;44.768;17.206;2022-10-04T21:08:33;11.60;;;6.40;;
36351;SDS011;22382;44.768;17.206;2022-10-04T21:21:56;8.70;;;5.47;;
36351;SDS011;22382;44.768;17.206;2022-10-04T21:24:32;17.70;;;9.40;;
36351;SDS011;22382;44.768;17.206;2022-10-04T21:27:04;14.00;;;7.38;;
36351;SDS011;22382;44.768;17.206;2022-10-04T21:29:36;13.98;;;7.43;;
36351;SDS011;22382;44.768;17.206;2022-10-04T21:32:05;11.43;;;6.18;;
36351;SDS011;22382;44.768;17.206;2022-10-04T21:34:32;11.13;;;7.45;;
36351;SDS011;22382;44.768;17.206;2022-10-04T21:37:18;9.80;;;5.10;;
36351;SDS011;22382;44.768;17.206;2022-10-04T21:39:47;10.60;;;5.40;;
36351;SDS011;22382;44.768;17.206;2022-10-04T21:42:14;9.40;;;5.32;;
36351;SDS011;22382;44.768;17.206;2022-10-04T21:44:41;10.00;;;6.07;;
36351;SDS011;22382;44.768;17.206;2022-10-04T21:47:09;13.80;;;6.43;;
36351;SDS011;22382;44.768;17.206;2022-10-04T21:49:36;9.23;;;6.97;;
36351;SDS011;22382;44.768;17.206;2022-10-04T21:52:03;10.57;;;6.45;;
36351;SDS011;22382;44.768;17.206;2022-10-04T21:54:31;16.25;;;7.03;;
36351;SDS011;22382;44.768;17.206;2022-10-04T21:56:58;10.65;;;5.88;;
36351;SDS011;22382;44.768;17.206;2022-10-04T21:59:25;8.43;;;5.35;;
36351;SDS011;22382;44.768;17.206;2022-10-04T22:01:52;11.32;;;6.38;;
36351;SDS011;22382;44.768;17.206;2022-10-04T22:04:19;7.88;;;5.15;;
36351;SDS011;22382;44.768;17.206;2022-10-04T22:06:46;9.15;;;4.90;;
36351;SDS011;22382;44.768;17.206;2022-10-04T22:09:14;8.43;;;5.03;;
36351;SDS011;22382;44.768;17.206;2022-10-04T22:11:41;8.05;;;4.45;;
36351;SDS011;22382;44.768;17.206;2022-10-04T22:14:08;10.38;;;5.30;;
36351;SDS011;22382;44.768;17.206;2022-10-04T22:16:34;47.78;;;26.52;;
36351;SDS011;22382;44.768;17.206;2022-10-04T22:19:02;39.63;;;20.98;;
36351;SDS011;22382;44.768;17.206;2022-10-04T22:21:29;22.10;;;12.63;;
36351;SDS011;22382;44.768;17.206;2022-10-04T22:23:56;12.32;;;6.82;;
36351;SDS011;22382;44.768;17.206;2022-10-04T22:26:24;9.32;;;5.78;;
36351;SDS011;22382;44.768;17.206;2022-10-04T22:28:53;9.27;;;4.90;;
36351;SDS011;22382;44.768;17.206;2022-10-04T22:31:24;8.18;;;4.78;;
36351;SDS011;22382;44.768;17.206;2022-10-04T22:33:53;12.10;;;6.10;;
36351;SDS011;22382;44.768;17.206;2022-10-04T22:36:37;10.55;;;5.18;;
36351;SDS011;22382;44.768;17.206;2022-10-04T22:41:35;7.32;;;3.92;;
36351;SDS011;22382;44.768;17.206;2022-10-04T22:44:15;7.28;;;4.20;;
36351;SDS011;22382;44.768;17.206;2022-10-04T22:46:46;8.20;;;4.68;;
36351;SDS011;22382;44.768;17.206;2022-10-04T22:49:17;7.93;;;3.90;;
36351;SDS011;22382;44.768;17.206;2022-10-04T22:51:47;7.50;;;3.83;;
36351;SDS011;22382;44.768;17.206;2022-10-04T22:54:16;7.93;;;4.35;;
36351;SDS011;22382;44.768;17.206;2022-10-04T22:56:46;11.18;;;4.60;;
36351;SDS011;22382;44.768;17.206;2022-10-04T22:59:16;7.93;;;4.15;;
36351;SDS011;22382;44.768;17.206;2022-10-04T23:01:45;7.55;;;4.97;;
36351;SDS011;22382;44.768;17.206;2022-10-04T23:04:22;9.02;;;4.20;;
36351;SDS011;22382;44.768;17.206;2022-10-04T23:06:51;8.68;;;4.43;;
36351;SDS011;22382;44.768;17.206;2022-10-04T23:09:18;7.43;;;4.95;;
36351;SDS011;22382;44.768;17.206;2022-10-04T23:11:46;10.02;;;4.90;;
36351;SDS011;22382;44.768;17.206;2022-10-04T23:14:13;8.95;;;4.95;;
36351;SDS011;22382;44.768;17.206;2022-10-04T23:16:40;7.95;;;4.13;;
36351;SDS011;22382;44.768;17.206;2022-10-04T23:19:12;7.03;;;3.97;;
36351;SDS011;22382;44.768;17.206;2022-10-04T23:21:45;5.95;;;3.72;;
36351;SDS011;22382;44.768;17.206;2022-10-04T23:24:17;6.80;;;3.57;;
36351;SDS011;22382;44.768;17.206;2022-10-04T23:26:54;6.03;;;3.70;;
36351;SDS011;22382;44.768;17.206;2022-10-04T23:29:22;6.18;;;3.83;;
36351;SDS011;22382;44.768;17.206;2022-10-04T23:31:52;6.22;;;3.67;;
36351;SDS011;22382;44.768;17.206;2022-10-04T23:34:26;6.85;;;4.00;;
36351;SDS011;22382;44.768;17.206;2022-10-04T23:36:58;8.85;;;3.97;;
36351;SDS011;22382;44.768;17.206;2022-10-04T23:39:26;5.82;;;3.90;;
36351;SDS011;22382;44.768;17.206;2022-10-04T23:41:56;6.82;;;4.03;;
36351;SDS011;22382;44.768;17.206;2022-10-04T23:44:35;10.02;;;4.32;;
36351;SDS011;22382;44.768;17.206;2022-10-04T23:47:17;8.48;;;4.65;;
36351;SDS011;22382;44.768;17.206;2022-10-04T23:49:45;10.77;;;5.00;;
36351;SDS011;22382;44.768;17.206;2022-10-04T23:52:23;8.93;;;4.05;;
36351;SDS011;22382;44.768;17.206;2022-10-04T23:54:55;5.78;;;3.75;;
36351;SDS011;22382;44.768;17.206;2022-10-04T23:57:23;9.52;;;3.78;;
36351;SDS011;22382;44.768;17.206;2022-10-04T23:59:52;7.47;;;3.90;;
